createdAt,value
2022-08-21T00:00:30.169Z,33.53
2022-08-21T00:03:04.296Z,34.00
2022-08-21T00:05:37.356Z,31.58
2022-08-21T00:08:05.666Z,36.93
2022-08-21T00:10:33.694Z,33.47
2022-08-21T00:13:05.135Z,36.95
2022-08-21T00:15:34.814Z,35.38
2022-08-21T00:18:03.561Z,36.70
2022-08-21T00:20:31.495Z,32.97
2022-08-21T00:22:59.172Z,37.40
2022-08-21T00:25:27.846Z,33.95
2022-08-21T00:27:57.023Z,33.28
2022-08-21T00:30:27.336Z,36.33
2022-08-21T00:32:57.626Z,37.47
2022-08-21T00:35:30.876Z,38.22
2022-08-21T00:37:59.505Z,35.35
2022-08-21T00:40:34.747Z,37.65
2022-08-21T00:43:06.717Z,36.38
2022-08-21T00:45:35.003Z,38.08
2022-08-21T00:48:03.087Z,31.83
2022-08-21T00:50:33.905Z,31.30
2022-08-21T00:53:04.062Z,25.73
2022-08-21T00:55:32.669Z,27.40
2022-08-21T00:58:02.801Z,27.98
2022-08-21T01:00:34.354Z,25.42
2022-08-21T01:03:07.418Z,26.75
2022-08-21T01:05:37.626Z,28.92
2022-08-21T01:08:07.303Z,28.80
2022-08-21T01:10:36.256Z,27.65
2022-08-21T01:13:08.917Z,30.23
2022-08-21T01:15:39.896Z,32.08
2022-08-21T01:18:10.406Z,34.28
2022-08-21T01:20:39.999Z,37.60
2022-08-21T01:23:08.489Z,39.05
2022-08-21T01:25:36.666Z,43.13
2022-08-21T01:28:12.556Z,50.90
2022-08-21T01:30:41.615Z,50.63
2022-08-21T01:33:09.206Z,55.00
2022-08-21T01:35:37.136Z,58.03
2022-08-21T01:38:04.836Z,58.25
2022-08-21T01:40:32.506Z,60.92
2022-08-21T01:43:00.105Z,62.88
2022-08-21T01:45:27.885Z,66.97
2022-08-21T01:47:55.976Z,63.45
2022-08-21T01:50:24.024Z,65.90
2022-08-21T01:52:53.085Z,64.70
2022-08-21T01:55:21.031Z,66.28
2022-08-21T01:57:49.877Z,56.78
2022-08-21T02:00:20.666Z,52.78
2022-08-21T02:02:48.195Z,44.42
2022-08-21T02:05:15.951Z,43.83
2022-08-21T02:07:47.465Z,39.72
2022-08-21T02:10:18.303Z,34.97
2022-08-21T02:12:46.255Z,32.53
2022-08-21T02:15:14.786Z,30.27
2022-08-21T02:18:08.786Z,29.33
2022-08-21T02:20:45.545Z,27.83
2022-08-21T02:23:13.996Z,26.35
2022-08-21T02:25:42.613Z,23.80
2022-08-21T02:28:14.526Z,24.08
2022-08-21T02:30:45.576Z,23.67
2022-08-21T02:33:14.456Z,22.25
2022-08-21T02:35:43.814Z,23.42
2022-08-21T02:38:24.284Z,23.65
2022-08-21T02:40:52.468Z,22.40
2022-08-21T02:43:22.471Z,19.95
2022-08-21T02:45:52.005Z,18.80
2022-08-21T02:48:25.575Z,14.93
2022-08-21T02:50:57.331Z,12.15
2022-08-21T02:53:25.655Z,12.45
2022-08-21T02:55:54.795Z,11.88
2022-08-21T02:58:26.612Z,11.00
2022-08-21T03:00:55.193Z,12.50
2022-08-21T03:03:23.283Z,11.07
2022-08-21T03:05:51.034Z,12.13
2022-08-21T03:08:19.521Z,11.90
2022-08-21T03:10:50.654Z,11.95
2022-08-21T03:13:21.590Z,12.25
2022-08-21T03:15:50.605Z,12.27
2022-08-21T03:18:18.410Z,11.30
2022-08-21T03:20:46.575Z,11.10
2022-08-21T03:23:16.782Z,11.70
2022-08-21T03:25:47.851Z,12.48
2022-08-21T03:28:23.084Z,10.90
2022-08-21T03:30:52.372Z,10.70
2022-08-21T03:33:23.311Z,9.63
2022-08-21T03:36:09.704Z,10.23
2022-08-21T03:38:38.411Z,9.00
2022-08-21T03:41:06.903Z,9.68
2022-08-21T03:43:37.383Z,9.27
2022-08-21T03:46:06.737Z,9.27
2022-08-21T03:48:36.685Z,11.40
2022-08-21T03:51:05.434Z,8.90
2022-08-21T03:53:33.533Z,9.93
2022-08-21T03:56:01.273Z,9.80
2022-08-21T03:58:30.067Z,9.57
2022-08-21T04:01:00.163Z,9.95
2022-08-21T04:03:29.022Z,9.48
2022-08-21T04:05:56.700Z,10.38
2022-08-21T04:08:24.554Z,10.77
2022-08-21T04:10:54.946Z,9.93
2022-08-21T04:13:22.938Z,11.90
2022-08-21T04:15:51.072Z,11.70
2022-08-21T04:18:19.458Z,10.70
2022-08-21T04:20:50.911Z,9.80
2022-08-21T04:23:23.572Z,10.65
2022-08-21T04:25:53.967Z,10.50
2022-08-21T04:28:23.649Z,8.50
2022-08-21T04:30:57.162Z,8.50
2022-08-21T04:33:25.567Z,7.28
2022-08-21T04:35:53.314Z,7.97
2022-08-21T04:38:21.394Z,7.35
2022-08-21T04:40:50.674Z,7.38
2022-08-21T04:43:19.385Z,7.93
2022-08-21T04:45:48.873Z,7.90
2022-08-21T04:48:18.974Z,7.40
2022-08-21T04:50:58.502Z,8.05
2022-08-21T04:53:34.949Z,8.77
2022-08-21T04:56:09.623Z,8.93
2022-08-21T04:58:39.529Z,7.32
2022-08-21T05:01:14.550Z,7.85
2022-08-21T05:03:42.390Z,6.80
2022-08-21T05:06:12.889Z,7.03
2022-08-21T05:08:42.383Z,6.65
2022-08-21T05:11:10.629Z,8.63
2022-08-21T05:13:38.516Z,8.13
2022-08-21T05:16:06.342Z,8.60
2022-08-21T05:18:34.059Z,7.90
2022-08-21T05:21:01.692Z,8.15
2022-08-21T05:23:29.282Z,7.43
2022-08-21T05:25:58.481Z,7.70
2022-08-21T05:28:27.269Z,9.05
2022-08-21T05:30:55.233Z,7.63
2022-08-21T05:33:22.813Z,7.25
2022-08-21T05:35:56.918Z,8.40
2022-08-21T05:38:28.263Z,8.40
2022-08-21T05:40:56.433Z,7.10
2022-08-21T05:43:24.068Z,8.07
2022-08-21T05:45:51.673Z,8.30
2022-08-21T05:48:23.601Z,9.50
2022-08-21T05:50:53.133Z,9.45
2022-08-21T05:53:23.699Z,10.38
2022-08-21T05:55:52.852Z,11.52
2022-08-21T05:58:22.592Z,10.35
2022-08-21T06:00:51.702Z,10.68
2022-08-21T06:03:24.050Z,13.55
2022-08-21T06:05:51.881Z,15.00
2022-08-21T06:08:20.483Z,14.52
2022-08-21T06:10:49.763Z,18.73
2022-08-21T06:13:19.232Z,16.48
2022-08-21T06:15:47.070Z,17.10
2022-08-21T06:18:15.232Z,17.58
2022-08-21T06:20:43.422Z,18.48
2022-08-21T06:23:10.953Z,17.77
2022-08-21T06:25:38.561Z,18.65
2022-08-21T06:28:09.679Z,18.80
2022-08-21T06:30:38.792Z,18.27
2022-08-21T06:33:08.104Z,19.20
2022-08-21T06:35:36.724Z,21.00
2022-08-21T06:38:05.222Z,22.35
2022-08-21T06:40:34.807Z,23.27
2022-08-21T06:43:12.357Z,24.10
2022-08-21T06:45:43.429Z,24.20
2022-08-21T06:48:12.739Z,25.05
2022-08-21T06:50:43.463Z,25.27
2022-08-21T06:53:13.741Z,27.35
2022-08-21T06:55:41.699Z,29.05
2022-08-21T06:58:10.131Z,29.73
2022-08-21T07:00:41.528Z,28.10
2022-08-21T07:03:17.022Z,30.42
2022-08-21T07:05:44.648Z,30.85
2022-08-21T07:08:12.110Z,31.38
2022-08-21T07:10:39.687Z,31.60
2022-08-21T07:13:07.443Z,30.35
2022-08-21T07:15:35.487Z,28.02
2022-08-21T07:18:03.953Z,28.45
2022-08-21T07:20:32.237Z,26.88
2022-08-21T07:23:03.931Z,28.30
2022-08-21T07:25:32.411Z,26.40
2022-08-21T07:27:59.901Z,27.92
2022-08-21T07:30:28.404Z,28.45
2022-08-21T07:32:56.749Z,29.50
2022-08-21T07:35:24.729Z,26.60
2022-08-21T07:37:52.499Z,26.67
2022-08-21T07:40:20.510Z,27.80
2022-08-21T07:42:51.158Z,24.98
2022-08-21T07:45:22.252Z,25.15
2022-08-21T07:47:53.127Z,26.40
2022-08-21T07:50:25.341Z,25.60
2022-08-21T07:52:54.461Z,25.45
2022-08-21T07:55:22.800Z,26.33
2022-08-21T07:57:50.456Z,23.90
2022-08-21T08:00:25.474Z,25.55
2022-08-21T08:02:55.262Z,24.48
2022-08-21T08:05:27.249Z,25.20
2022-08-21T08:07:55.573Z,25.52
2022-08-21T08:10:24.180Z,25.20
2022-08-21T08:12:53.030Z,23.58
2022-08-21T08:15:24.540Z,21.50
2022-08-21T08:17:52.131Z,20.20
2022-08-21T08:20:21.122Z,21.08
2022-08-21T08:22:50.237Z,22.00
2022-08-21T08:25:20.059Z,21.45
2022-08-21T08:27:47.718Z,20.20
2022-08-21T08:30:17.834Z,19.15
2022-08-21T08:32:46.226Z,18.98
2022-08-21T08:35:14.526Z,19.00
2022-08-21T08:37:43.879Z,18.60
2022-08-21T08:40:24.448Z,17.45
2022-08-21T08:42:52.490Z,17.67
2022-08-21T08:45:25.008Z,16.90
2022-08-21T08:47:59.125Z,18.60
2022-08-21T08:50:51.808Z,17.63
2022-08-21T08:53:29.771Z,17.70
2022-08-21T08:55:58.719Z,17.77
2022-08-21T08:58:32.230Z,15.45
2022-08-21T09:01:01.208Z,16.63
2022-08-21T09:03:29.731Z,19.20
2022-08-21T09:06:12.460Z,18.90
2022-08-21T09:08:50.033Z,17.38
2022-08-21T09:11:35.899Z,19.33
2022-08-21T09:14:49.019Z,18.02
2022-08-21T09:18:02.186Z,15.43
2022-08-21T09:20:53.929Z,16.48
2022-08-21T09:23:52.335Z,15.98
2022-08-21T09:26:23.980Z,15.20
2022-08-21T09:28:59.388Z,14.35
2022-08-21T09:31:33.741Z,12.93
2022-08-21T09:34:09.267Z,12.43
2022-08-21T09:36:46.499Z,14.18
2022-08-21T09:39:24.259Z,12.88
2022-08-21T09:42:34.980Z,12.10
2022-08-21T09:45:19.468Z,11.48
2022-08-21T09:47:47.036Z,10.40
2022-08-21T09:50:19.033Z,9.35
2022-08-21T09:52:59.979Z,8.43
2022-08-21T09:55:57.836Z,8.90
2022-08-21T09:58:34.875Z,6.65
2022-08-21T10:01:05.923Z,7.88
2022-08-21T10:03:33.778Z,7.53
2022-08-21T10:06:09.821Z,7.28
2022-08-21T10:08:43.829Z,6.93
2022-08-21T10:11:15.578Z,6.55
2022-08-21T10:14:14.117Z,6.10
2022-08-21T10:16:53.668Z,7.35
2022-08-21T10:19:31.865Z,6.35
2022-08-21T10:22:17.860Z,7.47
2022-08-21T10:24:57.559Z,5.97
2022-08-21T10:27:43.819Z,6.82
2022-08-21T10:30:15.330Z,6.18
2022-08-21T10:32:52.317Z,6.22
2022-08-21T10:35:33.228Z,6.10
2022-08-21T10:39:12.048Z,5.32
2022-08-21T10:42:02.474Z,5.07
2022-08-21T10:44:58.667Z,5.82
2022-08-21T10:47:58.213Z,6.00
2022-08-21T10:50:51.948Z,5.05
2022-08-21T10:53:42.698Z,4.38
2022-08-21T10:56:20.532Z,4.82
2022-08-21T10:59:11.067Z,5.38
2022-08-21T11:01:44.584Z,5.57
2022-08-21T11:04:21.304Z,5.20
2022-08-21T11:06:59.897Z,4.43
2022-08-21T11:09:32.238Z,3.83
2022-08-21T11:12:10.940Z,3.63
2022-08-21T11:15:29.498Z,4.15
2022-08-21T11:18:15.158Z,4.35
2022-08-21T11:21:03.705Z,3.90
2022-08-21T11:23:48.593Z,4.50
2022-08-21T11:26:31.477Z,4.25
2022-08-21T11:29:11.237Z,3.97
2022-08-21T11:31:49.378Z,4.05
2022-08-21T11:34:16.987Z,3.97
2022-08-21T11:36:47.569Z,4.60
2022-08-21T11:39:23.064Z,4.43
2022-08-21T11:42:09.026Z,3.33
2022-08-21T11:44:51.422Z,3.05
2022-08-21T11:47:50.892Z,3.05
2022-08-21T11:50:35.618Z,3.58
2022-08-21T11:53:18.391Z,3.92
2022-08-21T11:55:58.336Z,3.70
2022-08-21T11:58:57.890Z,3.70
2022-08-21T12:01:33.628Z,4.00
2022-08-21T12:04:19.923Z,3.40
2022-08-21T12:06:48.446Z,3.47
2022-08-21T12:09:25.235Z,3.20
2022-08-21T12:12:06.253Z,2.78
2022-08-21T12:14:41.803Z,3.33
2022-08-21T12:17:20.746Z,3.10
2022-08-21T12:20:00.236Z,3.33
2022-08-21T12:22:42.061Z,2.80
2022-08-21T12:25:21.015Z,3.05
2022-08-21T12:27:53.507Z,2.17
2022-08-21T12:30:46.274Z,3.00
2022-08-21T12:33:31.427Z,2.58
2022-08-21T12:36:11.217Z,2.25
2022-08-21T12:38:52.642Z,2.05
2022-08-21T12:41:23.917Z,1.85
2022-08-21T12:44:01.686Z,2.17
2022-08-21T12:46:37.822Z,1.90
2022-08-21T12:49:15.185Z,2.00
2022-08-21T12:52:23.266Z,2.13
2022-08-21T12:54:50.998Z,1.83
2022-08-21T12:57:22.936Z,1.98
2022-08-21T13:00:01.366Z,2.08
2022-08-21T13:02:41.226Z,2.08
2022-08-21T13:05:14.115Z,1.75
2022-08-21T13:07:47.542Z,1.95
2022-08-21T13:10:21.706Z,1.92
2022-08-21T13:12:50.126Z,1.90
2022-08-21T13:15:33.017Z,1.98
2022-08-21T13:18:03.563Z,2.00
2022-08-21T13:20:34.404Z,1.90
2022-08-21T13:23:04.865Z,2.58
2022-08-21T13:25:37.356Z,2.00
2022-08-21T13:28:12.762Z,1.90
2022-08-21T13:30:44.625Z,2.13
2022-08-21T13:33:15.942Z,1.80
2022-08-21T13:36:01.935Z,2.05
2022-08-21T13:38:32.903Z,2.00
2022-08-21T13:41:07.326Z,1.92
2022-08-21T13:43:36.846Z,2.10
2022-08-21T13:46:11.312Z,1.70
2022-08-21T13:48:39.571Z,2.47
2022-08-21T13:51:07.587Z,2.55
2022-08-21T13:53:53.451Z,2.35
2022-08-21T13:56:43.314Z,2.10
2022-08-21T13:59:11.025Z,2.00
2022-08-21T14:01:55.749Z,2.38
2022-08-21T14:04:26.240Z,2.75
2022-08-21T14:06:54.239Z,2.55
2022-08-21T14:09:44.058Z,2.47
2022-08-21T14:12:30.561Z,2.50
2022-08-21T14:14:59.598Z,2.78
2022-08-21T14:17:34.024Z,2.38
2022-08-21T14:20:02.786Z,2.10
2022-08-21T14:22:44.682Z,2.22
2022-08-21T14:25:30.321Z,2.65
2022-08-21T14:28:19.453Z,2.55
2022-08-21T14:30:48.322Z,1.88
2022-08-21T14:33:33.583Z,2.72
2022-08-21T14:36:03.073Z,2.28
2022-08-21T14:38:31.060Z,2.30
2022-08-21T14:41:17.112Z,2.45
2022-08-21T14:43:46.610Z,2.05
2022-08-21T14:46:22.482Z,2.00
2022-08-21T14:48:50.212Z,2.40
2022-08-21T14:51:18.153Z,2.75
2022-08-21T14:53:46.413Z,2.22
2022-08-21T14:56:15.273Z,1.92
2022-08-21T14:58:49.753Z,2.22
2022-08-21T15:01:19.957Z,1.95
2022-08-21T15:03:49.600Z,2.22
2022-08-21T15:06:18.788Z,2.13
2022-08-21T15:08:46.321Z,3.05
2022-08-21T15:11:42.185Z,1.90
2022-08-21T15:14:12.071Z,2.10
2022-08-21T15:16:39.762Z,1.70
2022-08-21T15:19:07.221Z,1.85
2022-08-21T15:21:34.699Z,1.55
2022-08-21T15:24:02.345Z,1.55
2022-08-21T15:26:30.024Z,1.60
2022-08-21T15:28:57.572Z,1.95
2022-08-21T15:31:25.358Z,2.55
2022-08-21T15:33:53.623Z,1.70
2022-08-21T15:36:21.226Z,1.70
2022-08-21T15:38:48.763Z,1.60
2022-08-21T15:41:16.534Z,2.38
2022-08-21T15:43:48.863Z,2.00
2022-08-21T15:46:18.371Z,1.75
2022-08-21T15:48:47.284Z,1.70
2022-08-21T15:51:16.893Z,2.45
2022-08-21T15:53:45.592Z,1.42
2022-08-21T15:56:21.012Z,1.80
2022-08-21T15:58:49.101Z,1.52
2022-08-21T16:01:16.951Z,1.58
2022-08-21T16:03:49.842Z,1.90
2022-08-21T16:06:17.468Z,2.03
2022-08-21T16:08:45.072Z,2.05
2022-08-21T16:11:17.094Z,1.40
2022-08-21T16:13:46.669Z,1.92
2022-08-21T16:16:19.252Z,1.13
2022-08-21T16:18:48.383Z,1.80
2022-08-21T16:21:16.901Z,1.67
2022-08-21T16:23:44.882Z,1.80
2022-08-21T16:26:18.583Z,1.50
2022-08-21T16:28:50.953Z,1.80
2022-08-21T16:31:20.316Z,1.75
2022-08-21T16:33:52.310Z,1.80
2022-08-21T16:36:29.030Z,1.80
2022-08-21T16:39:02.245Z,1.50
2022-08-21T16:41:34.601Z,1.80
2022-08-21T16:44:03.971Z,1.55
2022-08-21T16:46:35.041Z,1.50
2022-08-21T16:49:03.419Z,1.85
2022-08-21T16:51:31.792Z,1.55
2022-08-21T16:54:00.177Z,1.30
2022-08-21T16:56:28.181Z,1.95
2022-08-21T16:58:57.530Z,1.52
2022-08-21T17:01:31.875Z,1.85
2022-08-21T17:04:00.014Z,1.85
2022-08-21T17:06:29.275Z,1.60
2022-08-21T17:08:58.128Z,1.60
2022-08-21T17:11:37.741Z,1.58
2022-08-21T17:14:13.720Z,1.77
2022-08-21T17:16:46.560Z,1.73
2022-08-21T17:19:15.081Z,1.42
2022-08-21T17:21:42.923Z,1.55
2022-08-21T17:24:10.642Z,1.33
2022-08-21T17:26:38.181Z,1.88
2022-08-21T17:29:10.088Z,1.80
2022-08-21T17:31:40.261Z,1.92
2022-08-21T17:34:08.731Z,2.00
2022-08-21T17:36:36.257Z,2.30
2022-08-21T17:39:04.490Z,1.55
2022-08-21T17:41:32.152Z,2.00
2022-08-21T17:44:07.258Z,1.75
2022-08-21T17:46:35.068Z,1.88
2022-08-21T17:49:02.663Z,1.85
2022-08-21T17:51:34.208Z,1.65
2022-08-21T17:54:01.838Z,1.85
2022-08-21T17:56:36.397Z,2.00
2022-08-21T17:59:05.686Z,2.05
2022-08-21T18:01:38.147Z,1.85
2022-08-21T18:04:05.820Z,1.92
2022-08-21T18:06:33.338Z,1.83
2022-08-21T18:09:01.290Z,1.55
2022-08-21T18:11:30.927Z,2.20
2022-08-21T18:14:07.190Z,1.90
2022-08-21T18:16:37.753Z,1.90
2022-08-21T18:19:10.023Z,2.40
2022-08-21T18:21:37.819Z,2.30
2022-08-21T18:24:05.429Z,2.17
2022-08-21T18:26:37.156Z,1.90
2022-08-21T18:29:09.129Z,2.10
2022-08-21T18:31:38.627Z,1.63
2022-08-21T18:34:20.285Z,1.92
2022-08-21T18:36:49.068Z,2.38
2022-08-21T18:39:36.071Z,1.90
2022-08-21T18:42:09.516Z,2.35
2022-08-21T18:44:39.229Z,2.17
2022-08-21T18:47:15.978Z,2.50
2022-08-21T18:49:43.574Z,2.60
2022-08-21T18:52:17.729Z,1.83
2022-08-21T18:57:38.050Z,2.20
2022-08-21T19:00:13.786Z,2.00
2022-08-21T19:02:44.161Z,2.00
2022-08-21T19:05:14.638Z,2.80
2022-08-21T19:07:42.658Z,2.17
2022-08-21T19:10:29.279Z,2.70
2022-08-21T19:13:01.489Z,2.50
2022-08-21T19:15:30.003Z,2.30
2022-08-21T19:17:58.783Z,1.92
2022-08-21T19:20:30.730Z,2.40
2022-08-21T19:22:58.550Z,2.08
2022-08-21T19:25:33.966Z,2.40
2022-08-21T19:28:38.557Z,2.47
2022-08-21T19:31:16.414Z,2.20
2022-08-21T19:33:54.148Z,2.22
2022-08-21T19:36:24.805Z,2.35
2022-08-21T19:38:53.784Z,2.25
2022-08-21T19:41:24.259Z,2.00
2022-08-21T19:43:57.160Z,1.67
2022-08-21T19:46:30.614Z,2.10
2022-08-21T19:48:59.838Z,1.85
2022-08-21T19:51:28.378Z,2.15
2022-08-21T19:53:57.456Z,2.08
2022-08-21T19:56:27.954Z,2.50
2022-08-21T19:58:56.527Z,2.20
2022-08-21T20:01:26.038Z,2.05
2022-08-21T20:03:54.796Z,2.15
2022-08-21T20:06:25.178Z,2.22
2022-08-21T20:08:55.253Z,2.25
2022-08-21T20:11:31.440Z,2.00
2022-08-21T20:14:00.631Z,2.42
2022-08-21T20:16:28.946Z,2.47
2022-08-21T20:18:56.945Z,2.72
2022-08-21T20:21:24.620Z,2.20
2022-08-21T20:23:52.217Z,2.65
2022-08-21T20:26:19.958Z,2.30
2022-08-21T20:28:50.560Z,2.00
2022-08-21T20:31:21.743Z,1.88
2022-08-21T20:33:51.259Z,2.78
2022-08-21T20:36:21.504Z,1.83
2022-08-21T20:38:52.075Z,2.17
2022-08-21T20:41:30.443Z,2.30
2022-08-21T20:43:59.880Z,2.38
2022-08-21T20:46:29.959Z,1.95
2022-08-21T20:48:58.175Z,1.92
2022-08-21T20:51:52.850Z,2.13
2022-08-21T20:54:35.236Z,1.85
2022-08-21T20:57:15.395Z,2.30
2022-08-21T20:59:53.036Z,2.05
2022-08-21T21:02:37.899Z,2.08
2022-08-21T21:05:31.908Z,1.92
2022-08-21T21:08:14.365Z,2.05
2022-08-21T21:11:06.941Z,2.42
2022-08-21T21:13:57.016Z,2.10
2022-08-21T21:16:38.409Z,2.45
2022-08-21T21:19:28.215Z,1.83
2022-08-21T21:22:10.559Z,2.03
2022-08-21T21:24:59.236Z,2.05
2022-08-21T21:27:59.388Z,2.10
2022-08-21T21:30:35.593Z,2.20
2022-08-21T21:33:04.693Z,1.80
2022-08-21T21:35:40.119Z,2.10
2022-08-21T21:38:32.892Z,2.00
2022-08-21T21:41:37.298Z,1.70
2022-08-21T21:44:22.288Z,2.28
2022-08-21T21:47:02.488Z,2.08
2022-08-21T21:49:49.569Z,2.13
2022-08-21T21:53:12.570Z,2.17
2022-08-21T21:56:01.724Z,1.83
2022-08-21T21:58:56.988Z,2.17
2022-08-21T22:01:38.148Z,2.03
2022-08-21T22:05:02.288Z,2.10
2022-08-21T22:07:40.689Z,2.00
2022-08-21T22:10:43.164Z,1.88
2022-08-21T22:13:33.505Z,2.50
2022-08-21T22:16:07.838Z,2.38
2022-08-21T22:18:45.297Z,2.28
2022-08-21T22:21:40.427Z,2.22
2022-08-21T22:24:17.001Z,2.08
2022-08-21T22:26:49.825Z,2.00
2022-08-21T22:29:20.374Z,2.40
2022-08-21T22:32:06.951Z,2.00
2022-08-21T22:34:34.864Z,1.92
2022-08-21T22:37:06.448Z,2.05
2022-08-21T22:39:42.253Z,1.90
2022-08-21T22:42:21.199Z,2.10
2022-08-21T22:44:56.574Z,2.22
2022-08-21T22:47:30.656Z,2.50
2022-08-21T22:50:04.334Z,2.33
2022-08-21T22:52:36.368Z,2.10
2022-08-21T22:55:17.249Z,2.42
2022-08-21T22:57:45.851Z,2.38
2022-08-21T23:00:34.558Z,2.58
2022-08-21T23:03:03.633Z,2.45
2022-08-21T23:05:34.495Z,2.47
2022-08-21T23:15:18.015Z,2.75
2022-08-21T23:18:04.746Z,2.72
2022-08-21T23:20:56.111Z,2.70
2022-08-21T23:23:31.275Z,2.35
2022-08-21T23:26:26.720Z,2.40
2022-08-21T23:29:25.049Z,2.60
2022-08-21T23:31:59.407Z,2.53
2022-08-21T23:37:49.723Z,2.08
2022-08-21T23:40:35.160Z,2.63
2022-08-21T23:43:23.020Z,2.30
2022-08-21T23:46:13.586Z,2.83
2022-08-21T23:48:52.310Z,2.53
2022-08-21T23:51:27.700Z,2.03
2022-08-21T23:54:08.636Z,2.20
2022-08-21T23:57:00.979Z,2.10
2022-08-21T23:59:57.597Z,2.25
